sensor_id;sensor_type;location;lat;lon;timestamp;pressure;altitude;pressure_sealevel;temperature;humidity
67373;BME280;54257;54.496;18.412;2023-05-29T00:01:56;100157.70;;;11.88;56.18
67373;BME280;54257;54.496;18.412;2023-05-29T00:04:23;100158.12;;;11.82;56.05
67373;BME280;54257;54.496;18.412;2023-05-29T00:06:51;100156.99;;;11.77;56.13
67373;BME280;54257;54.496;18.412;2023-05-29T00:09:18;100155.58;;;11.74;56.12
67373;BME280;54257;54.496;18.412;2023-05-29T00:11:45;100155.35;;;11.70;55.92
67373;BME280;54257;54.496;18.412;2023-05-29T00:14:20;100159.07;;;11.67;56.15
67373;BME280;54257;54.496;18.412;2023-05-29T00:16:50;100159.67;;;11.63;56.10
67373;BME280;54257;54.496;18.412;2023-05-29T00:19:17;100162.32;;;11.56;56.14
67373;BME280;54257;54.496;18.412;2023-05-29T00:21:44;100162.08;;;11.52;56.25
67373;BME280;54257;54.496;18.412;2023-05-29T00:24:15;100162.86;;;11.47;56.39
67373;BME280;54257;54.496;18.412;2023-05-29T00:26:42;100162.64;;;11.44;56.56
67373;BME280;54257;54.496;18.412;2023-05-29T00:29:10;100160.20;;;11.41;56.58
67373;BME280;54257;54.496;18.412;2023-05-29T00:31:38;100158.92;;;11.37;56.55
67373;BME280;54257;54.496;18.412;2023-05-29T00:34:04;100161.47;;;11.36;56.74
67373;BME280;54257;54.496;18.412;2023-05-29T00:36:31;100161.42;;;11.33;56.90
67373;BME280;54257;54.496;18.412;2023-05-29T00:38:58;100163.41;;;11.29;57.12
67373;BME280;54257;54.496;18.412;2023-05-29T00:41:25;100169.66;;;11.25;57.35
67373;BME280;54257;54.496;18.412;2023-05-29T00:43:51;100170.79;;;11.20;57.40
67373;BME280;54257;54.496;18.412;2023-05-29T00:46:18;100172.29;;;11.18;57.41
67373;BME280;54257;54.496;18.412;2023-05-29T00:48:47;100170.89;;;11.16;57.67
67373;BME280;54257;54.496;18.412;2023-05-29T00:51:16;100172.36;;;11.13;57.74
67373;BME280;54257;54.496;18.412;2023-05-29T00:53:44;100172.50;;;11.10;57.72
67373;BME280;54257;54.496;18.412;2023-05-29T00:56:12;100176.39;;;11.08;57.73
67373;BME280;54257;54.496;18.412;2023-05-29T00:58:39;100179.44;;;11.07;57.69
67373;BME280;54257;54.496;18.412;2023-05-29T01:01:06;100180.08;;;11.05;57.83
67373;BME280;54257;54.496;18.412;2023-05-29T01:03:33;100178.86;;;11.03;57.81
67373;BME280;54257;54.496;18.412;2023-05-29T01:06:02;100175.71;;;11.00;57.87
67373;BME280;54257;54.496;18.412;2023-05-29T01:08:30;100174.95;;;10.96;57.98
67373;BME280;54257;54.496;18.412;2023-05-29T01:11:03;100173.84;;;10.91;57.96
67373;BME280;54257;54.496;18.412;2023-05-29T01:13:34;100173.79;;;10.88;58.12
67373;BME280;54257;54.496;18.412;2023-05-29T01:18:54;100165.98;;;10.82;58.12
67373;BME280;54257;54.496;18.412;2023-05-29T01:21:56;100166.95;;;10.79;58.53
67373;BME280;54257;54.496;18.412;2023-05-29T01:24:58;100171.30;;;10.74;58.48
67373;BME280;54257;54.496;18.412;2023-05-29T01:27:31;100182.84;;;10.70;58.64
67373;BME280;54257;54.496;18.412;2023-05-29T01:30:00;100175.55;;;10.64;59.06
67373;BME280;54257;54.496;18.412;2023-05-29T01:32:29;100175.61;;;10.58;59.29
67373;BME280;54257;54.496;18.412;2023-05-29T01:34:56;100179.59;;;10.52;59.32
67373;BME280;54257;54.496;18.412;2023-05-29T01:37:24;100175.89;;;10.47;59.45
67373;BME280;54257;54.496;18.412;2023-05-29T01:39:51;100176.42;;;10.40;59.43
67373;BME280;54257;54.496;18.412;2023-05-29T01:42:17;100172.74;;;10.34;59.72
67373;BME280;54257;54.496;18.412;2023-05-29T01:44:45;100181.39;;;10.32;60.13
67373;BME280;54257;54.496;18.412;2023-05-29T01:47:13;100182.38;;;10.30;60.91
67373;BME280;54257;54.496;18.412;2023-05-29T01:49:40;100178.09;;;10.29;61.69
67373;BME280;54257;54.496;18.412;2023-05-29T01:52:09;100179.62;;;10.29;62.58
67373;BME280;54257;54.496;18.412;2023-05-29T01:54:37;100177.77;;;10.30;62.88
67373;BME280;54257;54.496;18.412;2023-05-29T01:57:04;100177.98;;;10.32;63.16
67373;BME280;54257;54.496;18.412;2023-05-29T01:59:33;100180.59;;;10.34;63.44
67373;BME280;54257;54.496;18.412;2023-05-29T02:02:06;100183.38;;;10.37;63.75
67373;BME280;54257;54.496;18.412;2023-05-29T02:04:33;100179.17;;;10.41;64.03
67373;BME280;54257;54.496;18.412;2023-05-29T02:07:00;100175.83;;;10.44;64.14
67373;BME280;54257;54.496;18.412;2023-05-29T02:09:27;100174.66;;;10.45;64.48
67373;BME280;54257;54.496;18.412;2023-05-29T02:11:54;100175.53;;;10.46;64.73
67373;BME280;54257;54.496;18.412;2023-05-29T02:14:21;100173.84;;;10.47;64.89
67373;BME280;54257;54.496;18.412;2023-05-29T02:16:47;100173.16;;;10.47;64.90
67373;BME280;54257;54.496;18.412;2023-05-29T02:19:15;100180.86;;;10.48;65.28
67373;BME280;54257;54.496;18.412;2023-05-29T02:21:42;100180.38;;;10.49;65.94
67373;BME280;54257;54.496;18.412;2023-05-29T02:24:09;100181.75;;;10.49;66.34
67373;BME280;54257;54.496;18.412;2023-05-29T02:26:36;100185.40;;;10.52;66.63
67373;BME280;54257;54.496;18.412;2023-05-29T02:29:06;100182.98;;;10.52;66.77
67373;BME280;54257;54.496;18.412;2023-05-29T02:31:33;100183.04;;;10.53;67.25
67373;BME280;54257;54.496;18.412;2023-05-29T02:34:00;100181.66;;;10.53;67.47
67373;BME280;54257;54.496;18.412;2023-05-29T02:36:27;100176.41;;;10.56;67.55
67373;BME280;54257;54.496;18.412;2023-05-29T02:38:54;100177.29;;;10.57;67.51
67373;BME280;54257;54.496;18.412;2023-05-29T02:41:21;100179.75;;;10.59;67.35
67373;BME280;54257;54.496;18.412;2023-05-29T02:43:48;100178.94;;;10.61;67.48
67373;BME280;54257;54.496;18.412;2023-05-29T02:46:15;100175.88;;;10.63;67.36
67373;BME280;54257;54.496;18.412;2023-05-29T02:48:41;100176.59;;;10.64;67.40
67373;BME280;54257;54.496;18.412;2023-05-29T02:51:10;100171.02;;;10.68;67.34
67373;BME280;54257;54.496;18.412;2023-05-29T02:53:37;100167.66;;;10.71;67.54
67373;BME280;54257;54.496;18.412;2023-05-29T02:56:04;100167.02;;;10.74;67.50
67373;BME280;54257;54.496;18.412;2023-05-29T02:58:31;100168.80;;;10.77;67.86
67373;BME280;54257;54.496;18.412;2023-05-29T03:01:00;100163.07;;;10.81;68.17
67373;BME280;54257;54.496;18.412;2023-05-29T03:03:29;100166.06;;;10.86;68.30
67373;BME280;54257;54.496;18.412;2023-05-29T03:05:56;100169.73;;;10.90;68.82
67373;BME280;54257;54.496;18.412;2023-05-29T03:08:23;100165.51;;;10.92;69.20
67373;BME280;54257;54.496;18.412;2023-05-29T03:10:51;100162.64;;;10.95;69.46
67373;BME280;54257;54.496;18.412;2023-05-29T03:13:18;100161.15;;;10.98;69.37
67373;BME280;54257;54.496;18.412;2023-05-29T03:15:45;100165.17;;;11.02;69.60
67373;BME280;54257;54.496;18.412;2023-05-29T03:18:12;100166.44;;;11.06;69.87
67373;BME280;54257;54.496;18.412;2023-05-29T03:20:39;100165.96;;;11.08;70.26
67373;BME280;54257;54.496;18.412;2023-05-29T03:23:06;100161.55;;;11.10;70.54
67373;BME280;54257;54.496;18.412;2023-05-29T03:25:33;100165.85;;;11.11;70.76
67373;BME280;54257;54.496;18.412;2023-05-29T03:27:59;100166.39;;;11.13;71.14
67373;BME280;54257;54.496;18.412;2023-05-29T03:30:26;100166.07;;;11.15;70.99
67373;BME280;54257;54.496;18.412;2023-05-29T03:32:53;100161.64;;;11.15;71.05
67373;BME280;54257;54.496;18.412;2023-05-29T03:35:20;100168.23;;;11.21;70.90
67373;BME280;54257;54.496;18.412;2023-05-29T03:37:47;100165.28;;;11.28;70.90
67373;BME280;54257;54.496;18.412;2023-05-29T03:40:13;100166.22;;;11.33;70.87
67373;BME280;54257;54.496;18.412;2023-05-29T03:42:40;100166.60;;;11.36;70.61
67373;BME280;54257;54.496;18.412;2023-05-29T03:45:07;100171.99;;;11.41;70.36
67373;BME280;54257;54.496;18.412;2023-05-29T03:47:34;100173.77;;;11.45;70.17
67373;BME280;54257;54.496;18.412;2023-05-29T03:50:01;100176.42;;;11.49;69.96
67373;BME280;54257;54.496;18.412;2023-05-29T03:52:28;100178.15;;;11.50;69.89
67373;BME280;54257;54.496;18.412;2023-05-29T03:54:54;100180.41;;;11.53;70.02
67373;BME280;54257;54.496;18.412;2023-05-29T03:57:21;100176.02;;;11.57;69.68
67373;BME280;54257;54.496;18.412;2023-05-29T03:59:48;100175.94;;;11.63;69.54
67373;BME280;54257;54.496;18.412;2023-05-29T04:02:15;100174.64;;;11.68;69.47
67373;BME280;54257;54.496;18.412;2023-05-29T04:04:42;100173.38;;;11.74;69.49
67373;BME280;54257;54.496;18.412;2023-05-29T04:07:10;100172.27;;;11.79;69.24
67373;BME280;54257;54.496;18.412;2023-05-29T04:09:37;100172.71;;;11.85;69.18
67373;BME280;54257;54.496;18.412;2023-05-29T04:12:05;100170.92;;;11.91;68.90
67373;BME280;54257;54.496;18.412;2023-05-29T04:14:32;100174.11;;;11.98;68.82
67373;BME280;54257;54.496;18.412;2023-05-29T04:16:59;100172.00;;;12.07;68.58
67373;BME280;54257;54.496;18.412;2023-05-29T04:19:25;100171.94;;;12.15;68.37
67373;BME280;54257;54.496;18.412;2023-05-29T04:21:52;100169.48;;;12.22;67.93
67373;BME280;54257;54.496;18.412;2023-05-29T04:24:19;100170.59;;;12.29;67.77
67373;BME280;54257;54.496;18.412;2023-05-29T04:26:46;100171.19;;;12.36;67.12
67373;BME280;54257;54.496;18.412;2023-05-29T04:29:13;100173.01;;;12.45;66.60
67373;BME280;54257;54.496;18.412;2023-05-29T04:31:40;100176.20;;;12.53;66.32
67373;BME280;54257;54.496;18.412;2023-05-29T04:34:07;100178.19;;;12.62;66.10
67373;BME280;54257;54.496;18.412;2023-05-29T04:36:34;100178.96;;;12.70;65.60
67373;BME280;54257;54.496;18.412;2023-05-29T04:39:05;100181.08;;;12.75;64.95
67373;BME280;54257;54.496;18.412;2023-05-29T04:41:34;100184.75;;;12.81;64.49
67373;BME280;54257;54.496;18.412;2023-05-29T04:44:02;100186.70;;;12.86;64.16
67373;BME280;54257;54.496;18.412;2023-05-29T04:46:30;100183.83;;;12.92;63.61
67373;BME280;54257;54.496;18.412;2023-05-29T04:48:57;100184.60;;;12.99;63.43
67373;BME280;54257;54.496;18.412;2023-05-29T04:51:24;100178.18;;;13.08;63.24
67373;BME280;54257;54.496;18.412;2023-05-29T04:53:51;100179.27;;;13.16;62.76
67373;BME280;54257;54.496;18.412;2023-05-29T04:56:18;100179.73;;;13.22;62.30
67373;BME280;54257;54.496;18.412;2023-05-29T04:58:45;100178.25;;;13.31;62.53
67373;BME280;54257;54.496;18.412;2023-05-29T05:01:11;100179.35;;;13.39;62.26
67373;BME280;54257;54.496;18.412;2023-05-29T05:03:42;100178.05;;;13.48;61.53
67373;BME280;54257;54.496;18.412;2023-05-29T05:06:12;100174.69;;;13.56;61.07
67373;BME280;54257;54.496;18.412;2023-05-29T05:08:43;100172.00;;;13.64;60.34
67373;BME280;54257;54.496;18.412;2023-05-29T05:11:14;100175.50;;;13.73;60.33
67373;BME280;54257;54.496;18.412;2023-05-29T05:13:51;100177.63;;;13.84;59.87
67373;BME280;54257;54.496;18.412;2023-05-29T05:16:24;100175.27;;;13.89;58.91
67373;BME280;54257;54.496;18.412;2023-05-29T05:18:53;100177.37;;;13.95;59.01
67373;BME280;54257;54.496;18.412;2023-05-29T05:21:20;100178.27;;;14.00;58.72
67373;BME280;54257;54.496;18.412;2023-05-29T05:23:48;100180.00;;;14.06;58.45
67373;BME280;54257;54.496;18.412;2023-05-29T05:26:16;100180.55;;;14.11;58.20
67373;BME280;54257;54.496;18.412;2023-05-29T05:28:45;100174.89;;;14.13;57.97
67373;BME280;54257;54.496;18.412;2023-05-29T05:31:14;100183.19;;;14.20;57.98
67373;BME280;54257;54.496;18.412;2023-05-29T05:33:43;100179.10;;;14.27;57.98
67373;BME280;54257;54.496;18.412;2023-05-29T05:36:10;100179.98;;;14.34;57.67
67373;BME280;54257;54.496;18.412;2023-05-29T05:38:37;100177.94;;;14.40;57.01
67373;BME280;54257;54.496;18.412;2023-05-29T05:41:04;100180.74;;;14.45;57.07
67373;BME280;54257;54.496;18.412;2023-05-29T05:43:31;100181.16;;;14.58;57.04
67373;BME280;54257;54.496;18.412;2023-05-29T05:45:58;100181.73;;;14.74;56.82
67373;BME280;54257;54.496;18.412;2023-05-29T05:48:25;100179.55;;;14.96;56.99
67373;BME280;54257;54.496;18.412;2023-05-29T05:50:55;100177.36;;;15.20;56.14
67373;BME280;54257;54.496;18.412;2023-05-29T05:53:25;100172.20;;;15.40;55.50
67373;BME280;54257;54.496;18.412;2023-05-29T05:55:55;100179.46;;;15.64;54.29
67373;BME280;54257;54.496;18.412;2023-05-29T05:58:25;100181.87;;;15.83;53.07
67373;BME280;54257;54.496;18.412;2023-05-29T06:00:52;100187.00;;;16.02;52.15
67373;BME280;54257;54.496;18.412;2023-05-29T06:03:19;100184.39;;;16.15;51.51
67373;BME280;54257;54.496;18.412;2023-05-29T06:05:47;100185.91;;;16.28;51.46
67373;BME280;54257;54.496;18.412;2023-05-29T06:08:13;100187.74;;;16.43;50.99
67373;BME280;54257;54.496;18.412;2023-05-29T06:10:41;100188.55;;;16.60;50.60
67373;BME280;54257;54.496;18.412;2023-05-29T06:13:09;100191.25;;;16.79;50.51
67373;BME280;54257;54.496;18.412;2023-05-29T06:15:35;100193.24;;;16.93;49.38
67373;BME280;54257;54.496;18.412;2023-05-29T06:18:04;100194.04;;;17.05;48.46
67373;BME280;54257;54.496;18.412;2023-05-29T06:20:32;100191.19;;;17.19;48.38
67373;BME280;54257;54.496;18.412;2023-05-29T06:22:59;100188.66;;;17.33;48.04
67373;BME280;54257;54.496;18.412;2023-05-29T06:25:26;100191.67;;;17.49;46.16
67373;BME280;54257;54.496;18.412;2023-05-29T06:28:00;100189.98;;;17.62;46.52
67373;BME280;54257;54.496;18.412;2023-05-29T06:30:27;100195.98;;;17.75;46.60
67373;BME280;54257;54.496;18.412;2023-05-29T06:32:54;100193.51;;;17.79;45.97
67373;BME280;54257;54.496;18.412;2023-05-29T06:35:21;100196.54;;;17.87;45.56
67373;BME280;54257;54.496;18.412;2023-05-29T06:37:48;100199.80;;;18.08;45.86
67373;BME280;54257;54.496;18.412;2023-05-29T06:40:15;100196.02;;;18.36;45.10
67373;BME280;54257;54.496;18.412;2023-05-29T06:42:42;100195.79;;;18.57;43.79
67373;BME280;54257;54.496;18.412;2023-05-29T06:45:12;100197.23;;;18.82;44.03
67373;BME280;54257;54.496;18.412;2023-05-29T06:47:42;100198.39;;;19.10;43.31
67373;BME280;54257;54.496;18.412;2023-05-29T06:50:09;100196.92;;;19.27;42.51
67373;BME280;54257;54.496;18.412;2023-05-29T06:52:36;100198.72;;;19.46;41.21
67373;BME280;54257;54.496;18.412;2023-05-29T06:55:03;100200.25;;;19.59;41.08
67373;BME280;54257;54.496;18.412;2023-05-29T06:57:31;100200.73;;;19.82;40.31
67373;BME280;54257;54.496;18.412;2023-05-29T06:59:58;100202.45;;;19.94;39.38
67373;BME280;54257;54.496;18.412;2023-05-29T07:02:25;100201.96;;;20.01;38.15
67373;BME280;54257;54.496;18.412;2023-05-29T07:04:52;100201.27;;;20.01;36.80
67373;BME280;54257;54.496;18.412;2023-05-29T07:07:19;100206.80;;;20.02;37.52
67373;BME280;54257;54.496;18.412;2023-05-29T07:09:46;100204.70;;;20.12;36.68
67373;BME280;54257;54.496;18.412;2023-05-29T07:12:13;100208.13;;;20.25;36.26
67373;BME280;54257;54.496;18.412;2023-05-29T07:14:40;100201.60;;;20.30;35.27
67373;BME280;54257;54.496;18.412;2023-05-29T07:17:07;100205.19;;;20.32;35.01
67373;BME280;54257;54.496;18.412;2023-05-29T07:19:34;100202.08;;;20.41;35.00
67373;BME280;54257;54.496;18.412;2023-05-29T07:22:01;100203.86;;;20.57;35.36
67373;BME280;54257;54.496;18.412;2023-05-29T07:24:28;100202.87;;;20.71;34.72
67373;BME280;54257;54.496;18.412;2023-05-29T07:26:55;100202.42;;;20.85;33.88
67373;BME280;54257;54.496;18.412;2023-05-29T07:29:22;100202.36;;;20.95;33.66
67373;BME280;54257;54.496;18.412;2023-05-29T07:31:50;100202.88;;;21.18;33.61
67373;BME280;54257;54.496;18.412;2023-05-29T07:34:17;100199.02;;;21.36;32.94
67373;BME280;54257;54.496;18.412;2023-05-29T07:39:29;100191.89;;;21.64;32.02
67373;BME280;54257;54.496;18.412;2023-05-29T07:41:56;100199.34;;;21.66;31.23
67373;BME280;54257;54.496;18.412;2023-05-29T07:44:23;100208.20;;;21.59;31.08
67373;BME280;54257;54.496;18.412;2023-05-29T07:46:50;100209.60;;;21.52;31.27
67373;BME280;54257;54.496;18.412;2023-05-29T07:49:17;100205.63;;;21.58;31.63
67373;BME280;54257;54.496;18.412;2023-05-29T07:51:44;100210.70;;;21.57;30.72
67373;BME280;54257;54.496;18.412;2023-05-29T07:54:11;100205.66;;;21.56;31.46
67373;BME280;54257;54.496;18.412;2023-05-29T07:56:38;100202.74;;;21.68;32.37
67373;BME280;54257;54.496;18.412;2023-05-29T07:59:07;100204.34;;;21.88;32.41
67373;BME280;54257;54.496;18.412;2023-05-29T08:01:36;100202.30;;;22.20;32.62
67373;BME280;54257;54.496;18.412;2023-05-29T08:04:04;100205.33;;;22.48;32.27
67373;BME280;54257;54.496;18.412;2023-05-29T08:06:31;100208.58;;;22.63;31.31
67373;BME280;54257;54.496;18.412;2023-05-29T08:09:00;100208.45;;;22.73;31.98
67373;BME280;54257;54.496;18.412;2023-05-29T08:11:28;100211.16;;;22.88;32.12
67373;BME280;54257;54.496;18.412;2023-05-29T08:13:55;100212.16;;;23.13;32.29
67373;BME280;54257;54.496;18.412;2023-05-29T08:16:22;100210.52;;;23.26;31.10
67373;BME280;54257;54.496;18.412;2023-05-29T08:18:51;100212.29;;;23.15;31.35
67373;BME280;54257;54.496;18.412;2023-05-29T08:21:17;100211.11;;;23.13;30.91
67373;BME280;54257;54.496;18.412;2023-05-29T08:23:44;100218.81;;;23.07;31.19
67373;BME280;54257;54.496;18.412;2023-05-29T08:26:11;100214.33;;;22.99;30.99
67373;BME280;54257;54.496;18.412;2023-05-29T08:28:39;100219.11;;;23.02;31.60
67373;BME280;54257;54.496;18.412;2023-05-29T08:31:07;100212.34;;;23.24;31.04
67373;BME280;54257;54.496;18.412;2023-05-29T08:33:33;100216.88;;;23.35;29.59
67373;BME280;54257;54.496;18.412;2023-05-29T08:36:00;100224.15;;;23.47;29.25
67373;BME280;54257;54.496;18.412;2023-05-29T08:38:27;100221.60;;;23.62;29.51
67373;BME280;54257;54.496;18.412;2023-05-29T08:40:56;100223.79;;;23.85;29.31
67373;BME280;54257;54.496;18.412;2023-05-29T08:43:31;100225.52;;;24.00;28.55
67373;BME280;54257;54.496;18.412;2023-05-29T08:46:01;100224.58;;;24.13;28.60
67373;BME280;54257;54.496;18.412;2023-05-29T08:48:30;100226.84;;;24.33;28.90
67373;BME280;54257;54.496;18.412;2023-05-29T08:50:58;100229.41;;;24.59;28.87
67373;BME280;54257;54.496;18.412;2023-05-29T08:53:25;100228.64;;;24.85;28.17
67373;BME280;54257;54.496;18.412;2023-05-29T08:55:53;100228.79;;;24.99;27.87
67373;BME280;54257;54.496;18.412;2023-05-29T08:58:22;100231.89;;;25.05;28.56
67373;BME280;54257;54.496;18.412;2023-05-29T09:00:50;100229.63;;;25.19;28.15
67373;BME280;54257;54.496;18.412;2023-05-29T09:03:20;100222.38;;;25.34;27.34
67373;BME280;54257;54.496;18.412;2023-05-29T09:05:49;100221.95;;;25.27;27.31
67373;BME280;54257;54.496;18.412;2023-05-29T09:08:16;100218.98;;;25.44;27.09
67373;BME280;54257;54.496;18.412;2023-05-29T09:10:44;100213.39;;;25.74;26.48
67373;BME280;54257;54.496;18.412;2023-05-29T09:13:12;100216.10;;;25.97;25.85
67373;BME280;54257;54.496;18.412;2023-05-29T09:15:40;100211.99;;;26.11;25.03
67373;BME280;54257;54.496;18.412;2023-05-29T09:18:10;100218.95;;;26.12;25.38
67373;BME280;54257;54.496;18.412;2023-05-29T09:20:38;100218.80;;;26.32;25.56
67373;BME280;54257;54.496;18.412;2023-05-29T09:23:07;100212.88;;;26.59;24.65
67373;BME280;54257;54.496;18.412;2023-05-29T09:25:41;100213.30;;;26.76;24.31
67373;BME280;54257;54.496;18.412;2023-05-29T09:28:12;100214.91;;;26.80;24.54
67373;BME280;54257;54.496;18.412;2023-05-29T09:30:46;100218.72;;;26.88;24.73
67373;BME280;54257;54.496;18.412;2023-05-29T09:33:14;100220.06;;;27.04;24.91
67373;BME280;54257;54.496;18.412;2023-05-29T09:35:45;100219.96;;;27.22;24.88
67373;BME280;54257;54.496;18.412;2023-05-29T09:38:17;100219.48;;;27.39;24.51
67373;BME280;54257;54.496;18.412;2023-05-29T09:40:44;100221.88;;;27.51;23.86
67373;BME280;54257;54.496;18.412;2023-05-29T09:45:42;100226.93;;;27.58;23.49
67373;BME280;54257;54.496;18.412;2023-05-29T09:48:17;100225.95;;;27.72;23.31
67373;BME280;54257;54.496;18.412;2023-05-29T09:50:45;100218.91;;;27.86;22.95
67373;BME280;54257;54.496;18.412;2023-05-29T09:53:23;100221.39;;;28.03;23.46
67373;BME280;54257;54.496;18.412;2023-05-29T09:55:55;100223.92;;;28.18;23.16
67373;BME280;54257;54.496;18.412;2023-05-29T09:58:23;100225.60;;;28.27;22.97
67373;BME280;54257;54.496;18.412;2023-05-29T10:00:51;100222.58;;;28.41;22.59
67373;BME280;54257;54.496;18.412;2023-05-29T10:03:19;100222.63;;;28.60;22.35
67373;BME280;54257;54.496;18.412;2023-05-29T10:05:52;100221.48;;;28.48;20.46
67373;BME280;54257;54.496;18.412;2023-05-29T10:08:25;100227.48;;;28.11;21.37
67373;BME280;54257;54.496;18.412;2023-05-29T10:10:59;100227.77;;;27.88;22.41
67373;BME280;54257;54.496;18.412;2023-05-29T10:13:34;100225.42;;;27.86;22.22
67373;BME280;54257;54.496;18.412;2023-05-29T10:16:03;100229.73;;;27.87;21.65
67373;BME280;54257;54.496;18.412;2023-05-29T10:18:38;100228.60;;;27.60;20.56
67373;BME280;54257;54.496;18.412;2023-05-29T10:21:11;100225.23;;;27.40;21.23
67373;BME280;54257;54.496;18.412;2023-05-29T10:23:43;100225.11;;;27.35;21.74
67373;BME280;54257;54.496;18.412;2023-05-29T10:26:15;100223.16;;;27.32;22.08
67373;BME280;54257;54.496;18.412;2023-05-29T10:28:58;100223.33;;;27.36;22.27
67373;BME280;54257;54.496;18.412;2023-05-29T10:37:46;100216.83;;;28.37;22.85
67373;BME280;54257;54.496;18.412;2023-05-29T10:40:23;100218.71;;;28.51;23.29
67373;BME280;54257;54.496;18.412;2023-05-29T10:42:51;100216.27;;;28.77;23.97
67373;BME280;54257;54.496;18.412;2023-05-29T10:47:55;100213.59;;;29.25;23.21
67373;BME280;54257;54.496;18.412;2023-05-29T10:50:35;100213.83;;;29.21;22.96
67373;BME280;54257;54.496;18.412;2023-05-29T10:53:02;100212.73;;;29.09;22.85
67373;BME280;54257;54.496;18.412;2023-05-29T10:55:40;100205.20;;;29.15;22.86
67373;BME280;54257;54.496;18.412;2023-05-29T10:58:22;100213.61;;;29.09;23.15
67373;BME280;54257;54.496;18.412;2023-05-29T11:00:53;100204.51;;;28.73;23.31
67373;BME280;54257;54.496;18.412;2023-05-29T11:03:25;100204.20;;;28.43;23.87
67373;BME280;54257;54.496;18.412;2023-05-29T11:08:47;100199.96;;;28.53;24.44
67373;BME280;54257;54.496;18.412;2023-05-29T11:13:57;100202.05;;;28.95;24.53
67373;BME280;54257;54.496;18.412;2023-05-29T11:19:07;100197.23;;;29.37;23.57
67373;BME280;54257;54.496;18.412;2023-05-29T11:24:24;100196.67;;;29.60;22.89
67373;BME280;54257;54.496;18.412;2023-05-29T11:26:53;100202.02;;;29.45;23.04
67373;BME280;54257;54.496;18.412;2023-05-29T11:29:24;100194.59;;;29.25;22.91
67373;BME280;54257;54.496;18.412;2023-05-29T11:32:05;100193.86;;;29.07;23.54
67373;BME280;54257;54.496;18.412;2023-05-29T11:34:39;100193.33;;;29.16;23.66
67373;BME280;54257;54.496;18.412;2023-05-29T11:37:06;100201.23;;;28.94;23.10
67373;BME280;54257;54.496;18.412;2023-05-29T11:39:38;100202.17;;;28.74;23.57
67373;BME280;54257;54.496;18.412;2023-05-29T11:42:07;100201.44;;;28.45;23.99
67373;BME280;54257;54.496;18.412;2023-05-29T11:44:35;100199.27;;;28.19;24.04
67373;BME280;54257;54.496;18.412;2023-05-29T11:47:03;100197.53;;;28.26;24.33
67373;BME280;54257;54.496;18.412;2023-05-29T11:49:35;100199.77;;;28.57;23.99
67373;BME280;54257;54.496;18.412;2023-05-29T11:52:10;100199.86;;;28.87;23.88
67373;BME280;54257;54.496;18.412;2023-05-29T11:54:37;100199.06;;;28.93;23.45
67373;BME280;54257;54.496;18.412;2023-05-29T11:57:04;100197.63;;;28.89;22.77
67373;BME280;54257;54.496;18.412;2023-05-29T11:59:32;100207.03;;;28.82;22.59
67373;BME280;54257;54.496;18.412;2023-05-29T12:02:03;100207.11;;;28.80;22.57
67373;BME280;54257;54.496;18.412;2023-05-29T12:04:30;100206.32;;;28.82;22.62
67373;BME280;54257;54.496;18.412;2023-05-29T12:06:57;100202.48;;;28.62;22.28
67373;BME280;54257;54.496;18.412;2023-05-29T12:09:28;100198.95;;;28.16;22.70
67373;BME280;54257;54.496;18.412;2023-05-29T12:12:03;100199.17;;;27.84;23.16
67373;BME280;54257;54.496;18.412;2023-05-29T12:14:30;100194.84;;;27.83;23.54
67373;BME280;54257;54.496;18.412;2023-05-29T12:16:57;100199.77;;;27.99;23.50
67373;BME280;54257;54.496;18.412;2023-05-29T12:19:24;100196.90;;;27.87;22.99
67373;BME280;54257;54.496;18.412;2023-05-29T12:21:51;100190.64;;;27.64;23.39
67373;BME280;54257;54.496;18.412;2023-05-29T12:24:19;100194.02;;;27.78;23.87
67373;BME280;54257;54.496;18.412;2023-05-29T12:26:46;100195.73;;;28.03;24.01
67373;BME280;54257;54.496;18.412;2023-05-29T12:29:15;100193.77;;;28.20;23.54
67373;BME280;54257;54.496;18.412;2023-05-29T12:31:42;100190.63;;;28.30;23.15
67373;BME280;54257;54.496;18.412;2023-05-29T12:34:11;100188.25;;;28.39;23.19
67373;BME280;54257;54.496;18.412;2023-05-29T12:36:42;100186.45;;;28.46;23.06
67373;BME280;54257;54.496;18.412;2023-05-29T12:39:09;100190.02;;;28.52;23.06
67373;BME280;54257;54.496;18.412;2023-05-29T12:41:38;100190.54;;;28.61;22.93
67373;BME280;54257;54.496;18.412;2023-05-29T12:44:06;100183.27;;;28.72;22.65
67373;BME280;54257;54.496;18.412;2023-05-29T12:46:41;100189.94;;;28.72;22.03
67373;BME280;54257;54.496;18.412;2023-05-29T12:51:41;100192.19;;;28.70;21.24
67373;BME280;54257;54.496;18.412;2023-05-29T12:54:10;100199.97;;;28.59;21.40
67373;BME280;54257;54.496;18.412;2023-05-29T12:56:38;100198.63;;;28.74;21.85
67373;BME280;54257;54.496;18.412;2023-05-29T12:59:07;100195.23;;;28.95;21.94
67373;BME280;54257;54.496;18.412;2023-05-29T13:01:36;100180.94;;;28.89;21.29
67373;BME280;54257;54.496;18.412;2023-05-29T13:04:05;100184.05;;;28.64;22.05
67373;BME280;54257;54.496;18.412;2023-05-29T13:06:35;100189.36;;;28.60;21.76
67373;BME280;54257;54.496;18.412;2023-05-29T13:09:03;100186.70;;;28.61;21.76
67373;BME280;54257;54.496;18.412;2023-05-29T13:11:31;100184.74;;;28.65;21.65
67373;BME280;54257;54.496;18.412;2023-05-29T13:13:59;100181.38;;;28.62;21.10
67373;BME280;54257;54.496;18.412;2023-05-29T13:16:26;100184.78;;;28.54;21.63
67373;BME280;54257;54.496;18.412;2023-05-29T13:18:53;100179.81;;;28.55;21.78